createdAt,value
2018-05-03T00:00:38.123Z,99232.71
2018-05-03T00:04:40.613Z,99237.09
2018-05-03T00:08:43.054Z,99228.99
2018-05-03T00:12:45.522Z,99229.05
2018-05-03T00:16:47.998Z,99241.52
2018-05-03T00:20:51.504Z,99236.63
2018-05-03T00:24:54.989Z,99228.18
2018-05-03T00:28:58.427Z,99224.23
2018-05-03T00:33:00.900Z,99223.78
2018-05-03T00:37:04.300Z,99231.39
2018-05-03T00:41:06.787Z,99227.08
2018-05-03T00:45:09.231Z,99217.94
2018-05-03T00:49:11.778Z,99212.16
2018-05-03T00:53:14.228Z,99219.52
2018-05-03T00:57:16.705Z,99228.52
2018-05-03T01:01:20.154Z,99233.27
2018-05-03T01:05:22.657Z,99243.83
2018-05-03T01:09:26.064Z,99228.70
2018-05-03T01:13:28.534Z,99225.19
2018-05-03T01:17:31.009Z,99215.81
2018-05-03T01:21:34.483Z,99214.43
2018-05-03T01:25:36.929Z,99209.64
2018-05-03T01:29:40.389Z,99206.31
2018-05-03T01:33:43.795Z,99200.61
2018-05-03T01:37:49.931Z,99203.28
2018-05-03T01:41:54.411Z,99201.57
2018-05-03T01:45:57.792Z,99202.19
2018-05-03T01:50:00.277Z,99196.11
2018-05-03T01:54:03.723Z,99191.26
2018-05-03T01:58:08.155Z,99194.84
2018-05-03T02:02:11.563Z,99187.27
2018-05-03T02:06:14.037Z,99177.53
2018-05-03T02:10:16.505Z,99173.34
2018-05-03T02:14:20.982Z,99170.41
2018-05-03T02:18:23.466Z,99167.81
2018-05-03T02:22:27.925Z,99166.73
2018-05-03T02:26:31.414Z,99166.96
2018-05-03T02:30:39.441Z,99175.77
2018-05-03T02:34:41.920Z,99167.34
2018-05-03T03:52:53.301Z,99192.40
2018-05-03T03:56:56.962Z,99180.00
2018-05-03T04:01:08.462Z,99177.39
2018-05-03T04:05:10.923Z,99171.31
2018-05-03T05:23:19.880Z,99206.91
2018-05-03T05:27:22.458Z,99202.19
2018-05-03T05:31:25.088Z,99207.59
2018-05-03T05:35:27.705Z,99211.28
2018-05-03T05:39:30.284Z,99212.75
2018-05-03T05:43:32.792Z,99224.43
2018-05-03T05:47:35.370Z,99219.70
2018-05-03T05:51:38.034Z,99229.52
2018-05-03T05:55:40.659Z,99230.96
2018-05-03T05:59:43.283Z,99238.44
2018-05-03T06:03:45.955Z,99230.62
2018-05-03T06:07:48.525Z,99222.25
2018-05-03T06:11:51.163Z,99227.52
2018-05-03T06:15:53.874Z,99227.08
2018-05-03T06:19:56.518Z,99229.25
2018-05-03T06:23:59.213Z,99227.99
2018-05-03T06:28:01.762Z,99227.95
2018-05-03T06:32:04.317Z,99228.03
2018-05-03T06:36:06.919Z,99234.71
2018-05-03T06:40:15.444Z,99230.66
2018-05-03T06:44:18.052Z,99232.43
2018-05-03T06:48:20.678Z,99230.08
2018-05-03T06:52:23.235Z,99235.83
2018-05-03T06:56:25.883Z,99234.85
2018-05-03T07:04:37.394Z,99235.55
2018-05-03T07:08:39.957Z,99247.06
2018-05-03T07:12:42.577Z,99260.16
2018-05-03T07:16:45.164Z,99251.41
2018-05-03T07:20:47.693Z,99264.38
2018-05-03T07:24:50.221Z,99266.91
2018-05-03T07:28:52.763Z,99267.64
2018-05-03T07:32:55.260Z,99265.71
2018-05-03T07:36:57.776Z,99257.95
2018-05-03T07:41:00.311Z,99260.47
2018-05-03T07:45:02.818Z,99259.29
2018-05-03T07:49:05.337Z,99271.00
2018-05-03T07:53:07.814Z,99271.48
2018-05-03T07:57:10.261Z,99271.70
2018-05-03T08:01:12.831Z,99256.30
2018-05-03T08:05:15.225Z,99248.69
2018-05-03T08:09:17.691Z,99246.02
2018-05-03T08:13:20.162Z,99252.38
2018-05-03T08:17:22.638Z,99241.10
2018-05-03T08:21:25.118Z,99243.89
2018-05-03T08:25:27.614Z,99251.67
2018-05-03T08:29:30.077Z,99258.11
2018-05-03T08:33:32.552Z,99259.95
2018-05-03T08:37:35.044Z,99267.92
2018-05-03T08:41:37.496Z,99276.09
2018-05-03T08:45:39.965Z,99263.55
2018-05-03T08:49:42.443Z,99268.01
2018-05-03T08:53:44.915Z,99276.69
2018-05-03T08:57:47.370Z,99282.31
2018-05-03T09:01:49.881Z,99271.63
2018-05-03T09:05:52.344Z,99265.03
2018-05-03T09:09:54.829Z,99265.47
2018-05-03T09:13:57.309Z,99275.13
2018-05-03T09:17:59.770Z,99273.73
2018-05-03T09:22:02.239Z,99265.78
2018-05-03T09:26:04.702Z,99278.61
2018-05-03T09:30:07.179Z,99275.53
2018-05-03T09:34:09.655Z,99270.06
2018-05-03T09:38:12.135Z,99276.10
2018-05-03T09:42:14.626Z,99273.67
2018-05-03T09:46:17.113Z,99269.06
2018-05-03T09:50:19.597Z,99264.55
2018-05-03T09:58:30.988Z,99270.66
2018-05-03T10:02:33.450Z,99273.17
2018-05-03T10:06:35.919Z,99268.17
2018-05-03T10:10:38.391Z,99265.15
2018-05-03T10:14:40.951Z,99268.55
2018-05-03T10:18:43.317Z,99265.56
2018-05-03T10:22:45.821Z,99267.52
2018-05-03T10:26:48.307Z,99270.96
2018-05-03T10:30:51.752Z,99274.55
2018-05-03T10:34:54.227Z,99271.07
2018-05-03T10:38:58.342Z,99268.02
2018-05-03T10:43:00.882Z,99269.73
2018-05-03T10:47:03.396Z,99269.67
2018-05-03T10:51:05.912Z,99266.31
2018-05-03T10:55:08.441Z,99278.05
2018-05-03T11:03:53.174Z,99253.06
2018-05-03T11:07:55.631Z,99260.28
2018-05-03T11:11:58.116Z,99259.28
2018-05-03T11:16:00.596Z,99255.70
2018-05-03T11:20:03.089Z,99247.83
2018-05-03T11:24:05.579Z,99251.34
2018-05-03T11:28:08.030Z,99252.84
2018-05-03T11:32:10.506Z,99243.99
2018-05-03T11:36:13.004Z,99249.51
2018-05-03T11:40:15.451Z,99246.16
2018-05-03T11:44:17.927Z,99251.89
2018-05-03T11:48:20.411Z,99253.37
2018-05-03T11:52:22.892Z,99251.25
2018-05-03T11:56:25.380Z,99251.56
2018-05-03T12:00:27.844Z,99249.69
2018-05-03T12:04:30.321Z,99253.45
2018-05-03T12:08:32.797Z,99234.67
2018-05-03T12:12:35.296Z,99233.89
2018-05-03T12:16:37.742Z,99237.94
2018-05-03T12:20:40.221Z,99234.27
2018-05-03T12:24:42.696Z,99230.90
2018-05-03T12:28:45.156Z,99223.69
2018-05-03T12:32:47.688Z,99218.97
2018-05-03T12:36:50.110Z,99219.31
2018-05-03T12:40:52.585Z,99226.37
2018-05-03T12:44:55.071Z,99213.84
2018-05-03T12:48:57.556Z,99211.83
2018-05-03T12:53:00.002Z,99204.59
2018-05-03T12:57:02.484Z,99194.04
2018-05-03T13:01:04.971Z,99192.45
2018-05-03T13:05:07.454Z,99194.63
2018-05-03T13:09:09.932Z,99184.34
2018-05-03T13:13:12.392Z,99180.63
2018-05-03T13:17:14.875Z,99185.45
2018-05-03T13:21:17.355Z,99186.51
2018-05-03T13:25:19.858Z,99184.55
2018-05-03T13:29:22.307Z,99179.38
2018-05-03T13:33:24.793Z,99168.26
2018-05-03T13:37:27.261Z,99166.34
2018-05-03T13:41:30.774Z,99160.80
2018-05-03T13:45:33.228Z,99165.45
2018-05-03T13:49:35.717Z,99150.35
2018-05-03T13:53:38.237Z,99153.98
2018-05-03T13:57:40.722Z,99157.34
2018-05-03T14:01:43.175Z,99159.58
2018-05-03T14:05:45.648Z,99161.63
2018-05-03T14:09:48.127Z,99152.02
2018-05-03T14:13:50.681Z,99151.00
2018-05-03T14:17:53.140Z,99152.67
2018-05-03T14:21:55.850Z,99148.61
2018-05-03T14:25:58.337Z,99138.02
2018-05-03T14:30:00.791Z,99146.19
2018-05-03T14:34:03.307Z,99136.27
2018-05-03T14:38:05.787Z,99133.27
2018-05-03T14:42:08.270Z,99132.73
2018-05-03T14:46:10.764Z,99132.11
2018-05-03T14:50:13.219Z,99121.94
2018-05-03T14:54:15.718Z,99125.31
2018-05-03T14:58:18.179Z,99125.11
2018-05-03T15:02:20.631Z,99118.38
2018-05-03T15:06:23.109Z,99116.26
2018-05-03T15:10:25.589Z,99119.78
2018-05-03T15:14:28.062Z,99117.70
2018-05-03T15:18:30.603Z,99111.78
2018-05-03T15:22:33.019Z,99116.22
2018-05-03T15:26:35.474Z,99105.53
2018-05-03T15:30:37.962Z,99107.47
2018-05-03T15:34:40.438Z,99104.05
2018-05-03T15:38:42.898Z,99103.43
2018-05-03T15:42:45.382Z,99096.91
2018-05-03T15:46:47.877Z,99091.97
2018-05-03T15:50:51.354Z,99100.84
2018-05-03T15:54:53.838Z,99091.26
2018-05-03T15:58:56.316Z,99083.50
2018-05-03T16:02:58.773Z,99078.43
2018-05-03T16:07:01.260Z,99082.25
2018-05-03T16:11:03.719Z,99072.02
2018-05-03T16:15:06.204Z,99079.00
2018-05-03T16:19:08.688Z,99076.09
2018-05-03T16:23:11.176Z,99079.03
2018-05-03T16:27:13.696Z,99085.31
2018-05-03T16:31:16.147Z,99093.42
2018-05-03T16:35:18.733Z,99085.35
2018-05-03T16:39:21.176Z,99094.77
2018-05-03T16:43:23.682Z,99094.92
2018-05-03T16:47:26.170Z,99088.16
2018-05-03T16:51:28.652Z,99094.59
2018-05-03T16:55:31.135Z,99094.70
2018-05-03T16:59:33.594Z,99094.08
2018-05-03T17:03:36.068Z,99097.99
2018-05-03T17:07:38.555Z,99101.03
2018-05-03T17:11:41.027Z,99103.14
2018-05-03T17:15:43.538Z,99111.84
2018-05-03T17:19:46.031Z,99119.81
2018-05-03T17:23:48.491Z,99124.39
2018-05-03T17:27:50.997Z,99126.68
2018-05-03T17:31:53.451Z,99127.75
2018-05-03T17:35:55.931Z,99133.52
2018-05-03T17:39:58.399Z,99143.61
2018-05-03T17:44:00.879Z,99151.88
2018-05-03T17:48:03.335Z,99164.19
2018-05-03T17:52:05.808Z,99170.39
2018-05-03T17:56:08.262Z,99176.49
2018-05-03T18:00:10.746Z,99183.13
2018-05-03T18:04:13.192Z,99195.00
2018-05-03T18:08:15.671Z,99193.01
2018-05-03T18:12:18.155Z,99201.78
2018-05-03T18:16:20.696Z,99207.41
2018-05-03T18:20:23.092Z,99217.31
2018-05-03T18:24:25.636Z,99228.82
2018-05-03T18:28:28.070Z,99233.63
2018-05-03T18:32:30.559Z,99246.56
2018-05-03T18:36:33.107Z,99247.52
2018-05-03T18:40:35.599Z,99252.50
2018-05-03T18:44:38.050Z,99259.16
2018-05-03T18:48:40.549Z,99255.96
2018-05-03T18:52:43.027Z,99269.13
2018-05-03T18:56:45.479Z,99277.03
2018-05-03T19:00:47.968Z,99285.88
2018-05-03T19:04:50.452Z,99281.30
2018-05-03T19:08:52.915Z,99287.69
2018-05-03T19:12:55.459Z,99295.30
2018-05-03T19:16:57.898Z,99303.29
2018-05-03T19:21:00.390Z,99292.80
2018-05-03T19:25:02.848Z,99300.11
2018-05-03T19:29:05.332Z,99317.02
2018-05-03T19:33:07.801Z,99316.12
2018-05-03T19:37:10.290Z,99322.77
2018-05-03T19:41:13.615Z,99328.56
2018-05-03T19:45:16.107Z,99320.75
2018-05-03T19:49:18.604Z,99327.63
2018-05-03T19:53:21.096Z,99333.41
2018-05-03T19:57:23.553Z,99328.07
2018-05-03T20:01:26.040Z,99322.44
2018-05-03T20:05:28.527Z,99334.36
2018-05-03T20:09:30.971Z,99346.91
2018-05-03T20:13:33.506Z,99342.38
2018-05-03T20:17:35.960Z,99347.42
2018-05-03T20:21:38.436Z,99351.20
2018-05-03T20:25:40.926Z,99357.89
2018-05-03T20:29:43.415Z,99352.13
2018-05-03T20:33:45.874Z,99350.80
2018-05-03T20:37:48.354Z,99355.48
2018-05-03T20:41:50.832Z,99353.12
2018-05-03T20:45:53.367Z,99368.48
2018-05-03T20:49:55.803Z,99368.63
2018-05-03T20:53:58.286Z,99378.85
2018-05-03T20:58:00.752Z,99381.00
2018-05-03T21:02:03.264Z,99389.33
2018-05-03T21:06:05.737Z,99395.47
2018-05-03T21:10:08.224Z,99408.88
2018-05-03T21:14:11.151Z,99399.80
2018-05-03T21:18:13.632Z,99401.56
2018-05-03T21:22:16.115Z,99408.30
2018-05-03T21:26:18.670Z,99416.38
2018-05-03T21:30:21.071Z,99423.11
2018-05-03T21:34:23.526Z,99429.85
2018-05-03T21:38:26.044Z,99443.59
2018-05-03T21:42:28.653Z,99441.28
2018-05-03T21:46:31.138Z,99455.00
2018-05-03T21:50:33.627Z,99461.59
2018-05-03T21:54:36.074Z,99468.51
2018-05-03T21:58:38.564Z,99472.34
2018-05-03T22:02:41.054Z,99478.68
2018-05-03T22:06:43.511Z,99479.16
2018-05-03T22:10:46.003Z,99482.89
2018-05-03T22:14:48.466Z,99487.51
2018-05-03T22:18:50.950Z,99497.97
2018-05-03T22:22:53.429Z,99511.44
2018-05-03T22:26:55.915Z,99507.08
2018-05-03T22:30:58.402Z,99506.53
2018-05-03T22:35:00.921Z,99506.68
2018-05-03T22:39:03.405Z,99515.32
2018-05-03T22:43:06.123Z,99516.41
2018-05-03T22:47:08.602Z,99518.16
2018-05-03T22:51:11.081Z,99518.77
2018-05-03T22:55:13.530Z,99514.45
2018-05-03T22:59:16.019Z,99515.42
2018-05-03T23:03:18.494Z,99520.51
2018-05-03T23:07:20.971Z,99526.38
2018-05-03T23:11:23.450Z,99522.05
2018-05-03T23:15:25.936Z,99518.50
2018-05-03T23:19:28.421Z,99525.20
2018-05-03T23:23:30.906Z,99524.83
2018-05-03T23:27:33.392Z,99522.93
2018-05-03T23:31:35.882Z,99523.31
2018-05-03T23:35:38.377Z,99520.00
2018-05-03T23:39:40.876Z,99509.80
2018-05-03T23:43:43.331Z,99505.52
2018-05-03T23:47:45.828Z,99508.05
2018-05-03T23:51:48.287Z,99509.19
2018-05-03T23:55:50.813Z,99519.18
2018-05-03T23:59:53.303Z,99519.70
